createdAt,value
2017-08-26T00:00:27.176Z,1002.60
2017-08-26T00:01:27.079Z,1002.62
2017-08-26T00:02:27.031Z,1002.64
2017-08-26T00:03:27.022Z,1002.63
2017-08-26T00:04:27.056Z,1002.61
2017-08-26T00:05:27.018Z,1002.60
2017-08-26T00:06:27.018Z,1002.58
2017-08-26T00:07:26.983Z,1002.60
2017-08-26T00:08:26.991Z,1002.59
2017-08-26T00:09:27.009Z,1002.60
2017-08-26T00:10:27.037Z,1002.62
2017-08-26T00:11:27.066Z,1002.62
2017-08-26T00:12:26.974Z,1002.63
2017-08-26T00:13:27.002Z,1002.60
2017-08-26T00:14:26.907Z,1002.61
2017-08-26T00:15:26.926Z,1002.64
2017-08-26T00:16:26.922Z,1002.63
2017-08-26T00:17:26.884Z,1002.64
2017-08-26T00:18:26.951Z,1002.67
2017-08-26T00:19:26.884Z,1002.67
2017-08-26T00:20:26.938Z,1002.64
2017-08-26T00:21:26.929Z,1002.67
2017-08-26T00:22:26.829Z,1002.71
2017-08-26T00:23:26.826Z,1002.70
2017-08-26T00:24:26.943Z,1002.71
2017-08-26T00:25:26.817Z,1002.72
2017-08-26T00:26:26.813Z,1002.64
2017-08-26T00:27:26.916Z,1002.66
2017-08-26T00:28:26.937Z,1002.64
2017-08-26T00:29:26.934Z,1002.68
2017-08-26T00:30:26.842Z,1002.70
2017-08-26T00:31:26.832Z,1002.72
2017-08-26T00:32:26.791Z,1002.71
2017-08-26T00:33:26.935Z,1002.74
2017-08-26T00:34:26.858Z,1002.70
2017-08-26T00:35:26.768Z,1002.72
2017-08-26T00:36:26.685Z,1002.75
2017-08-26T00:37:26.736Z,1002.74
2017-08-26T00:38:26.712Z,1002.78
2017-08-26T00:39:26.729Z,1002.76
2017-08-26T00:40:26.674Z,1002.72
2017-08-26T00:41:26.682Z,1002.73
2017-08-26T00:42:26.723Z,1002.73
2017-08-26T00:43:26.717Z,1002.74
2017-08-26T00:44:26.643Z,1002.79
2017-08-26T00:45:26.669Z,1002.73
2017-08-26T00:46:26.688Z,1002.77
2017-08-26T00:47:26.682Z,1002.77
2017-08-26T00:48:26.588Z,1002.79
2017-08-26T00:49:26.586Z,1002.71
2017-08-26T00:50:26.592Z,1002.70
2017-08-26T00:51:26.595Z,1002.71
2017-08-26T00:52:26.539Z,1002.71
2017-08-26T00:53:26.621Z,1002.69
2017-08-26T00:54:26.538Z,1002.66
2017-08-26T00:55:26.527Z,1002.70
2017-08-26T00:56:26.561Z,1002.68
2017-08-26T00:57:26.555Z,1002.68
2017-08-26T00:58:26.507Z,1002.65
2017-08-26T00:59:26.513Z,1002.69
2017-08-26T01:00:26.519Z,1002.71
2017-08-26T01:01:26.488Z,1002.66
2017-08-26T01:02:26.443Z,1002.70
2017-08-26T01:03:26.462Z,1002.70
2017-08-26T01:04:26.526Z,1002.71
2017-08-26T01:05:26.497Z,1002.71
2017-08-26T01:06:26.481Z,1002.71
2017-08-26T01:07:26.483Z,1002.68
2017-08-26T01:08:26.426Z,1002.67
2017-08-26T01:09:26.414Z,1002.66
2017-08-26T01:10:26.381Z,1002.66
2017-08-26T01:11:26.423Z,1002.69
2017-08-26T01:12:26.382Z,1002.72
2017-08-26T01:13:26.362Z,1002.73
2017-08-26T01:14:26.318Z,1002.76
2017-08-26T01:15:26.353Z,1002.77
2017-08-26T01:16:26.303Z,1002.77
2017-08-26T01:17:26.299Z,1002.73
2017-08-26T01:18:26.366Z,1002.75
2017-08-26T01:19:26.344Z,1002.78
2017-08-26T01:20:26.321Z,1002.78
2017-08-26T01:21:26.311Z,1002.79
2017-08-26T01:22:26.248Z,1002.80
2017-08-26T01:23:26.232Z,1002.77
2017-08-26T01:24:26.234Z,1002.77
2017-08-26T01:25:26.312Z,1002.79
2017-08-26T01:26:26.219Z,1002.76
2017-08-26T01:27:26.216Z,1002.74
2017-08-26T01:28:26.184Z,1002.74
2017-08-26T01:29:26.190Z,1002.70
2017-08-26T01:30:26.183Z,1002.67
2017-08-26T01:31:26.162Z,1002.67
2017-08-26T01:32:26.140Z,1002.68
2017-08-26T01:33:26.158Z,1002.69
2017-08-26T01:34:26.123Z,1002.72
2017-08-26T01:35:26.150Z,1002.68
2017-08-26T01:36:26.101Z,1002.65
2017-08-26T01:37:26.168Z,1002.67
2017-08-26T01:38:26.143Z,1002.69
2017-08-26T01:39:26.081Z,1002.66
2017-08-26T01:40:26.118Z,1002.64
2017-08-26T01:41:26.099Z,1002.61
2017-08-26T01:42:26.072Z,1002.66
2017-08-26T01:43:26.097Z,1002.66
2017-08-26T01:44:26.075Z,1002.65
2017-08-26T01:45:26.133Z,1002.63
2017-08-26T01:46:26.068Z,1002.64
2017-08-26T01:47:26.092Z,1002.67
2017-08-26T01:48:25.999Z,1002.70
2017-08-26T01:49:26.046Z,1002.67
2017-08-26T01:50:26.011Z,1002.69
2017-08-26T01:51:25.992Z,1002.69
2017-08-26T01:52:26.050Z,1002.70
2017-08-26T01:53:25.983Z,1002.70
2017-08-26T01:54:25.955Z,1002.70
2017-08-26T01:55:26.021Z,1002.72
2017-08-26T01:56:25.885Z,1002.69
2017-08-26T01:57:25.989Z,1002.66
2017-08-26T01:58:25.961Z,1002.72
2017-08-26T01:59:25.958Z,1002.76
2017-08-26T02:00:25.834Z,1002.77
2017-08-26T02:01:25.836Z,1002.76
2017-08-26T02:02:25.871Z,1002.74
2017-08-26T02:03:25.843Z,1002.78
2017-08-26T02:04:25.808Z,1002.71
2017-08-26T02:05:25.794Z,1002.72
2017-08-26T02:06:25.785Z,1002.69
2017-08-26T02:07:25.826Z,1002.69
2017-08-26T02:08:25.826Z,1002.65
2017-08-26T02:09:25.789Z,1002.66
2017-08-26T02:10:25.752Z,1002.65
2017-08-26T02:11:25.817Z,1002.67
2017-08-26T02:12:25.766Z,1002.63
2017-08-26T02:13:25.795Z,1002.68
2017-08-26T02:14:25.785Z,1002.65
2017-08-26T02:15:25.712Z,1002.64
2017-08-26T02:16:25.754Z,1002.63
2017-08-26T02:17:25.729Z,1002.63
2017-08-26T02:18:25.706Z,1002.60
2017-08-26T02:19:25.699Z,1002.60
2017-08-26T02:20:25.632Z,1002.63
2017-08-26T02:21:25.654Z,1002.59
2017-08-26T02:22:25.632Z,1002.61
2017-08-26T02:23:25.610Z,1002.58
2017-08-26T02:24:25.636Z,1002.57
2017-08-26T02:25:25.649Z,1002.57
2017-08-26T02:26:25.613Z,1002.58
2017-08-26T02:27:25.594Z,1002.61
2017-08-26T02:28:25.561Z,1002.61
2017-08-26T02:29:25.603Z,1002.66
2017-08-26T02:30:25.525Z,1002.67
2017-08-26T02:31:25.522Z,1002.68
2017-08-26T02:32:25.588Z,1002.70
2017-08-26T02:33:25.528Z,1002.65
2017-08-26T02:34:25.522Z,1002.66
2017-08-26T02:35:25.519Z,1002.68
2017-08-26T02:36:25.503Z,1002.67
2017-08-26T02:37:25.468Z,1002.66
2017-08-26T02:38:25.448Z,1002.65
2017-08-26T02:39:25.458Z,1002.65
2017-08-26T02:40:25.433Z,1002.65
2017-08-26T02:41:25.448Z,1002.65
2017-08-26T02:42:25.434Z,1002.62
2017-08-26T02:43:25.513Z,1002.62
2017-08-26T02:44:25.426Z,1002.61
2017-08-26T02:45:25.439Z,1002.64
2017-08-26T02:46:25.392Z,1002.59
2017-08-26T02:47:25.367Z,1002.60
2017-08-26T02:48:25.427Z,1002.62
2017-08-26T02:49:25.331Z,1002.63
2017-08-26T02:50:25.360Z,1002.60
2017-08-26T02:51:25.316Z,1002.61
2017-08-26T02:52:25.388Z,1002.61
2017-08-26T02:53:25.319Z,1002.57
2017-08-26T02:54:25.344Z,1002.58
2017-08-26T02:55:25.264Z,1002.58
2017-08-26T02:56:25.325Z,1002.59
2017-08-26T02:57:25.312Z,1002.58
2017-08-26T02:58:25.311Z,1002.59
2017-08-26T02:59:25.216Z,1002.57
2017-08-26T03:00:25.272Z,1002.63
2017-08-26T03:01:25.212Z,1002.61
2017-08-26T03:02:25.249Z,1002.64
2017-08-26T03:03:25.257Z,1002.61
2017-08-26T03:04:25.222Z,1002.61
2017-08-26T03:05:25.190Z,1002.61
2017-08-26T03:06:25.221Z,1002.63
2017-08-26T03:07:25.229Z,1002.67
2017-08-26T03:08:25.208Z,1002.69
2017-08-26T03:09:25.223Z,1002.70
2017-08-26T03:10:25.184Z,1002.65
2017-08-26T03:11:25.142Z,1002.67
2017-08-26T03:12:25.175Z,1002.64
2017-08-26T03:13:25.341Z,1002.65
2017-08-26T03:14:25.106Z,1002.64
2017-08-26T03:15:25.087Z,1002.65
2017-08-26T03:16:25.100Z,1002.63
2017-08-26T03:17:25.055Z,1002.65
2017-08-26T03:18:25.087Z,1002.68
2017-08-26T03:19:25.007Z,1002.66
2017-08-26T03:20:25.050Z,1002.64
2017-08-26T03:21:25.030Z,1002.66
2017-08-26T03:22:25.066Z,1002.64
2017-08-26T03:23:25.059Z,1002.64
2017-08-26T03:24:25.003Z,1002.61
2017-08-26T03:25:25.055Z,1002.63
2017-08-26T03:26:24.971Z,1002.64
2017-08-26T03:27:25.008Z,1002.65
2017-08-26T03:28:24.964Z,1002.68
2017-08-26T03:29:24.936Z,1002.69
2017-08-26T03:30:24.962Z,1002.68
2017-08-26T03:31:24.982Z,1002.67
2017-08-26T03:32:24.929Z,1002.70
2017-08-26T03:33:24.920Z,1002.70
2017-08-26T03:34:24.846Z,1002.70
2017-08-26T03:35:24.900Z,1002.74
2017-08-26T03:36:24.939Z,1002.79
2017-08-26T03:37:24.818Z,1002.78
2017-08-26T03:38:24.836Z,1002.82
2017-08-26T03:39:24.856Z,1002.78
2017-08-26T03:40:24.891Z,1002.79
2017-08-26T03:41:24.859Z,1002.76
2017-08-26T03:42:24.855Z,1002.81
2017-08-26T03:43:24.815Z,1002.80
2017-08-26T03:44:24.782Z,1002.85
2017-08-26T03:45:24.830Z,1002.79
2017-08-26T03:46:24.779Z,1002.82
2017-08-26T03:47:24.795Z,1002.79
2017-08-26T03:48:24.721Z,1002.78
2017-08-26T03:49:24.744Z,1002.81
2017-08-26T03:50:24.708Z,1002.82
2017-08-26T03:51:24.660Z,1002.81
2017-08-26T03:52:24.657Z,1002.79
2017-08-26T03:53:24.651Z,1002.78
2017-08-26T03:54:24.676Z,1002.80
2017-08-26T03:55:24.634Z,1002.79
2017-08-26T03:56:24.609Z,1002.79
2017-08-26T03:57:24.609Z,1002.76
2017-08-26T03:58:24.653Z,1002.72
2017-08-26T03:59:24.667Z,1002.72
2017-08-26T04:00:24.584Z,1002.74
2017-08-26T04:01:24.558Z,1002.71
2017-08-26T04:02:24.543Z,1002.70
2017-08-26T04:03:24.552Z,1002.72
2017-08-26T04:04:24.526Z,1002.74
2017-08-26T04:05:24.580Z,1002.72
2017-08-26T04:06:24.535Z,1002.69
2017-08-26T04:07:24.522Z,1002.69
2017-08-26T04:08:24.526Z,1002.69
2017-08-26T04:09:24.551Z,1002.68
2017-08-26T04:10:24.443Z,1002.74
2017-08-26T04:11:24.529Z,1002.75
2017-08-26T04:12:24.487Z,1002.74
2017-08-26T04:13:24.429Z,1002.74
2017-08-26T04:14:24.497Z,1002.72
2017-08-26T04:15:24.442Z,1002.76
2017-08-26T04:16:24.385Z,1002.73
2017-08-26T04:17:24.472Z,1002.73
2017-08-26T04:18:24.367Z,1002.74
2017-08-26T04:19:24.458Z,1002.72
2017-08-26T04:20:24.368Z,1002.72
2017-08-26T04:21:24.339Z,1002.72
2017-08-26T04:22:24.414Z,1002.72
2017-08-26T04:23:24.304Z,1002.74
2017-08-26T04:24:24.304Z,1002.71
2017-08-26T04:25:24.349Z,1002.71
2017-08-26T04:26:24.365Z,1002.70
2017-08-26T04:27:24.397Z,1002.76
2017-08-26T04:28:24.253Z,1002.73
2017-08-26T04:29:24.311Z,1002.74
2017-08-26T04:30:24.240Z,1002.72
2017-08-26T04:31:24.275Z,1002.72
2017-08-26T04:32:24.259Z,1002.71
2017-08-26T04:33:24.205Z,1002.69
2017-08-26T04:34:24.217Z,1002.68
2017-08-26T04:35:24.263Z,1002.69
2017-08-26T04:36:24.224Z,1002.70
2017-08-26T04:37:24.165Z,1002.70
2017-08-26T04:38:24.240Z,1002.70
2017-08-26T04:39:24.141Z,1002.76
2017-08-26T04:40:24.237Z,1002.74
2017-08-26T04:41:24.120Z,1002.71
2017-08-26T04:42:24.122Z,1002.73
2017-08-26T04:43:24.149Z,1002.72
2017-08-26T04:44:24.091Z,1002.77
2017-08-26T04:45:24.097Z,1002.72
2017-08-26T04:46:24.068Z,1002.75
2017-08-26T04:47:24.085Z,1002.77
2017-08-26T04:48:24.066Z,1002.79
2017-08-26T04:49:24.113Z,1002.79
2017-08-26T04:50:24.095Z,1002.81
2017-08-26T04:51:24.094Z,1002.80
2017-08-26T04:52:24.022Z,1002.82
2017-08-26T04:53:23.993Z,1002.83
2017-08-26T04:54:23.996Z,1002.85
2017-08-26T04:55:23.992Z,1002.85
2017-08-26T04:56:23.948Z,1002.82
2017-08-26T04:57:23.979Z,1002.88
2017-08-26T04:58:23.925Z,1002.92
2017-08-26T04:59:23.985Z,1002.93
2017-08-26T05:00:23.903Z,1002.95
2017-08-26T05:01:23.897Z,1002.89
2017-08-26T05:02:23.938Z,1002.94
2017-08-26T05:03:23.906Z,1002.95
2017-08-26T05:04:23.861Z,1002.98
2017-08-26T05:05:23.848Z,1003.03
2017-08-26T05:06:23.871Z,1003.00
2017-08-26T05:07:23.845Z,1003.14
2017-08-26T05:08:23.830Z,1003.11
2017-08-26T05:09:23.832Z,1003.10
2017-08-26T05:10:23.809Z,1003.08
2017-08-26T05:11:23.870Z,1003.07
2017-08-26T05:12:23.794Z,1003.12
2017-08-26T05:13:23.791Z,1003.08
2017-08-26T05:14:23.812Z,1003.03
2017-08-26T05:15:23.797Z,1003.10
2017-08-26T05:16:23.832Z,1003.14
2017-08-26T05:17:23.752Z,1003.15
2017-08-26T05:18:23.746Z,1003.16
2017-08-26T05:19:23.726Z,1003.13
2017-08-26T05:20:23.717Z,1003.13
2017-08-26T05:21:23.717Z,1003.17
2017-08-26T05:22:23.660Z,1003.16
2017-08-26T05:23:23.654Z,1003.13
2017-08-26T05:24:23.641Z,1003.10
2017-08-26T05:25:23.667Z,1003.12
2017-08-26T05:26:23.635Z,1003.04
2017-08-26T05:27:23.661Z,1003.06
2017-08-26T05:28:23.628Z,1003.05
2017-08-26T05:29:23.634Z,1003.08
2017-08-26T05:30:23.565Z,1003.03
2017-08-26T05:31:23.618Z,1003.02
2017-08-26T05:32:23.548Z,1002.99
2017-08-26T05:33:23.625Z,1003.03
2017-08-26T05:34:23.586Z,1003.00
2017-08-26T05:35:23.570Z,1003.03
2017-08-26T05:36:23.543Z,1003.07
2017-08-26T05:37:23.530Z,1003.04
2017-08-26T05:38:23.533Z,1003.11
2017-08-26T05:39:23.462Z,1003.13
2017-08-26T05:40:23.558Z,1003.14
2017-08-26T05:41:23.494Z,1003.10
2017-08-26T05:42:23.447Z,1003.13
2017-08-26T05:43:23.434Z,1003.14
2017-08-26T05:44:23.485Z,1003.12
2017-08-26T05:45:23.421Z,1003.10
2017-08-26T05:46:23.408Z,1003.12
2017-08-26T05:47:23.427Z,1003.15
2017-08-26T05:48:23.438Z,1003.20
2017-08-26T05:49:23.358Z,1003.19
2017-08-26T05:50:23.370Z,1003.17
2017-08-26T05:51:23.329Z,1003.20
2017-08-26T05:52:23.345Z,1003.17
2017-08-26T05:53:23.329Z,1003.20
2017-08-26T05:54:23.297Z,1003.21
2017-08-26T05:55:23.313Z,1003.20
2017-08-26T05:56:23.346Z,1003.22
2017-08-26T05:57:23.304Z,1003.21
2017-08-26T05:58:23.259Z,1003.19
2017-08-26T05:59:23.293Z,1003.21
2017-08-26T06:00:23.249Z,1003.24
2017-08-26T06:01:23.241Z,1003.18
2017-08-26T06:02:23.305Z,1003.13
2017-08-26T06:03:23.214Z,1003.14
2017-08-26T06:04:23.246Z,1003.13
2017-08-26T06:05:23.201Z,1003.13
2017-08-26T06:06:23.189Z,1003.13
2017-08-26T06:07:23.184Z,1003.13
2017-08-26T06:08:23.191Z,1003.16
2017-08-26T06:09:23.198Z,1003.14
2017-08-26T06:10:23.161Z,1003.19
2017-08-26T06:11:23.217Z,1003.19
2017-08-26T06:12:23.149Z,1003.19
2017-08-26T06:13:23.120Z,1003.23
2017-08-26T06:14:23.085Z,1003.32
2017-08-26T06:15:23.120Z,1003.33
2017-08-26T06:16:23.081Z,1003.30
2017-08-26T06:17:23.048Z,1003.35
2017-08-26T06:18:23.036Z,1003.25
2017-08-26T06:19:23.024Z,1003.34
2017-08-26T06:20:23.041Z,1003.31
2017-08-26T06:21:23.091Z,1003.30
2017-08-26T06:22:23.074Z,1003.32
2017-08-26T06:23:23.008Z,1003.33
2017-08-26T06:24:22.989Z,1003.34
2017-08-26T06:25:22.961Z,1003.31
2017-08-26T06:26:23.027Z,1003.35
2017-08-26T06:27:22.933Z,1003.37
2017-08-26T06:28:22.978Z,1003.37
2017-08-26T06:29:22.925Z,1003.33
2017-08-26T06:30:22.919Z,1003.37
2017-08-26T06:31:22.935Z,1003.38
2017-08-26T06:32:22.942Z,1003.43
2017-08-26T06:33:22.884Z,1003.38
2017-08-26T06:34:22.890Z,1003.40
2017-08-26T06:35:22.919Z,1003.39
2017-08-26T06:36:22.922Z,1003.36
2017-08-26T06:37:22.855Z,1003.38
2017-08-26T06:38:22.817Z,1003.36
2017-08-26T06:39:22.846Z,1003.40
2017-08-26T06:40:22.799Z,1003.41
2017-08-26T06:41:22.830Z,1003.47
2017-08-26T06:42:22.781Z,1003.49
2017-08-26T06:43:22.776Z,1003.50
2017-08-26T06:44:22.832Z,1003.49
2017-08-26T06:45:22.759Z,1003.50
2017-08-26T06:46:22.729Z,1003.43
2017-08-26T06:47:22.813Z,1003.46
2017-08-26T06:48:22.710Z,1003.45
2017-08-26T06:49:22.800Z,1003.49
2017-08-26T06:50:22.676Z,1003.53
2017-08-26T06:51:22.691Z,1003.52
2017-08-26T06:52:22.722Z,1003.51
2017-08-26T06:53:22.640Z,1003.49
2017-08-26T06:54:22.646Z,1003.52
2017-08-26T06:55:22.713Z,1003.51
2017-08-26T06:56:22.627Z,1003.51
2017-08-26T06:57:22.698Z,1003.46
2017-08-26T06:58:22.640Z,1003.46
2017-08-26T06:59:22.592Z,1003.46
2017-08-26T07:00:22.582Z,1003.46
2017-08-26T07:01:22.592Z,1003.46
2017-08-26T07:02:22.585Z,1003.46
2017-08-26T07:03:22.562Z,1003.43
2017-08-26T07:04:22.611Z,1003.43
2017-08-26T07:05:22.543Z,1003.44
2017-08-26T07:06:22.523Z,1003.42
2017-08-26T07:07:22.536Z,1003.40
2017-08-26T07:08:22.504Z,1003.42
2017-08-26T07:09:22.521Z,1003.42
2017-08-26T07:10:22.488Z,1003.41
2017-08-26T07:11:22.478Z,1003.40
2017-08-26T07:12:22.473Z,1003.41
2017-08-26T07:13:22.456Z,1003.39
2017-08-26T07:14:22.421Z,1003.39
2017-08-26T07:15:22.479Z,1003.41
2017-08-26T07:16:22.482Z,1003.42
2017-08-26T07:17:22.523Z,1003.41
2017-08-26T07:18:22.393Z,1003.41
2017-08-26T07:19:22.592Z,1003.39
2017-08-26T07:20:22.388Z,1003.41
2017-08-26T07:21:22.507Z,1003.44
2017-08-26T07:22:22.351Z,1003.38
2017-08-26T07:23:22.395Z,1003.40
2017-08-26T07:24:22.530Z,1003.39
2017-08-26T07:25:22.316Z,1003.42
2017-08-26T07:26:22.299Z,1003.40
2017-08-26T07:27:22.274Z,1003.49
2017-08-26T07:28:22.328Z,1003.49
2017-08-26T07:29:22.328Z,1003.48
2017-08-26T07:30:22.268Z,1003.44
2017-08-26T07:31:22.268Z,1003.43
2017-08-26T07:32:22.302Z,1003.42
2017-08-26T07:33:22.244Z,1003.44
2017-08-26T07:34:22.309Z,1003.45
2017-08-26T07:35:22.245Z,1003.47
2017-08-26T07:36:22.204Z,1003.47
2017-08-26T07:37:22.188Z,1003.53
2017-08-26T07:38:22.207Z,1003.49
2017-08-26T07:39:22.148Z,1003.47
2017-08-26T07:40:22.153Z,1003.45
2017-08-26T07:41:22.136Z,1003.44
2017-08-26T07:42:22.187Z,1003.48
2017-08-26T07:43:22.130Z,1003.51
2017-08-26T07:44:22.164Z,1003.50
2017-08-26T07:45:22.188Z,1003.51
2017-08-26T07:46:22.078Z,1003.48
2017-08-26T07:47:22.299Z,1003.49
2017-08-26T07:48:22.217Z,1003.49
2017-08-26T07:49:22.197Z,1003.48
2017-08-26T07:50:22.197Z,1003.46
2017-08-26T07:51:22.120Z,1003.46
2017-08-26T07:52:22.104Z,1003.46
2017-08-26T07:53:22.097Z,1003.49
2017-08-26T07:54:22.066Z,1003.45
2017-08-26T07:55:22.052Z,1003.45
2017-08-26T07:56:22.106Z,1003.54
2017-08-26T07:57:22.019Z,1003.48
2017-08-26T07:58:22.029Z,1003.45
2017-08-26T07:59:21.992Z,1003.47
2017-08-26T08:00:21.967Z,1003.49
2017-08-26T08:01:22.027Z,1003.50
2017-08-26T08:02:21.962Z,1003.50
2017-08-26T08:03:21.962Z,1003.49
2017-08-26T08:04:21.927Z,1003.53
2017-08-26T08:05:21.879Z,1003.55
2017-08-26T08:06:21.914Z,1003.58
2017-08-26T08:07:21.934Z,1003.55
2017-08-26T08:08:21.864Z,1003.56
2017-08-26T08:09:21.866Z,1003.53
2017-08-26T08:10:21.841Z,1003.56
2017-08-26T08:11:21.885Z,1003.57
2017-08-26T08:12:21.866Z,1003.58
2017-08-26T08:13:21.811Z,1003.55
2017-08-26T08:14:21.863Z,1003.57
2017-08-26T08:15:21.879Z,1003.56
2017-08-26T08:16:21.971Z,1003.58
2017-08-26T08:17:21.882Z,1003.60
2017-08-26T08:18:21.866Z,1003.61
2017-08-26T08:19:21.847Z,1003.59
2017-08-26T08:20:21.883Z,1003.56
2017-08-26T08:21:21.885Z,1003.63
2017-08-26T08:22:21.853Z,1003.65
2017-08-26T08:23:21.724Z,1003.62
2017-08-26T08:24:22.158Z,1003.65
2017-08-26T08:25:21.759Z,1003.63
2017-08-26T08:26:21.742Z,1003.63
2017-08-26T08:27:21.768Z,1003.54
2017-08-26T08:28:21.990Z,1003.59
2017-08-26T08:29:21.740Z,1003.60
2017-08-26T08:30:21.643Z,1003.59
2017-08-26T08:31:21.714Z,1003.60
2017-08-26T08:32:21.662Z,1003.59
2017-08-26T08:33:21.615Z,1003.60
2017-08-26T08:34:21.621Z,1003.61
2017-08-26T08:35:21.637Z,1003.68
2017-08-26T08:36:21.634Z,1003.64
2017-08-26T08:37:21.632Z,1003.62
2017-08-26T08:38:21.618Z,1003.63
2017-08-26T08:39:21.579Z,1003.63
2017-08-26T08:40:21.601Z,1003.62
2017-08-26T08:41:21.605Z,1003.64
2017-08-26T08:42:21.592Z,1003.61
2017-08-26T08:43:21.567Z,1003.61
2017-08-26T08:44:21.755Z,1003.61
2017-08-26T08:45:21.717Z,1003.61
2017-08-26T08:46:21.538Z,1003.64
2017-08-26T08:47:21.611Z,1003.63
2017-08-26T08:48:21.489Z,1003.62
2017-08-26T08:49:21.523Z,1003.59
2017-08-26T08:50:21.485Z,1003.55
2017-08-26T08:51:21.529Z,1003.55
2017-08-26T08:52:21.468Z,1003.55
2017-08-26T08:53:21.513Z,1003.60
2017-08-26T08:54:21.454Z,1003.59
2017-08-26T08:55:21.404Z,1003.56
2017-08-26T08:56:21.410Z,1003.55
2017-08-26T08:57:21.574Z,1003.53
2017-08-26T08:58:21.360Z,1003.53
2017-08-26T08:59:21.356Z,1003.51
2017-08-26T09:00:21.363Z,1003.53
2017-08-26T09:01:21.344Z,1003.51
2017-08-26T09:02:21.314Z,1003.55
2017-08-26T09:03:21.318Z,1003.56
2017-08-26T09:04:21.315Z,1003.49
2017-08-26T09:05:21.321Z,1003.52
2017-08-26T09:06:21.290Z,1003.46
2017-08-26T09:07:21.302Z,1003.49
2017-08-26T09:08:21.289Z,1003.46
2017-08-26T09:09:21.267Z,1003.51
2017-08-26T09:10:21.280Z,1003.47
2017-08-26T09:11:21.225Z,1003.45
2017-08-26T09:12:21.213Z,1003.52
2017-08-26T09:13:21.312Z,1003.51
2017-08-26T09:14:21.239Z,1003.54
2017-08-26T09:15:21.200Z,1003.49
2017-08-26T09:16:21.238Z,1003.48
2017-08-26T09:17:21.203Z,1003.51
2017-08-26T09:18:21.183Z,1003.54
2017-08-26T09:19:21.385Z,1003.47
2017-08-26T09:20:21.186Z,1003.52
2017-08-26T09:21:21.186Z,1003.49
2017-08-26T09:22:21.222Z,1003.49
2017-08-26T09:23:21.225Z,1003.47
2017-08-26T09:24:21.131Z,1003.41
2017-08-26T09:25:21.177Z,1003.39
2017-08-26T09:26:21.108Z,1003.37
2017-08-26T09:27:21.099Z,1003.29
2017-08-26T09:28:21.107Z,1003.31
2017-08-26T09:29:21.099Z,1003.32
2017-08-26T09:30:21.092Z,1003.28
2017-08-26T09:31:21.073Z,1003.27
2017-08-26T09:32:21.066Z,1003.27
2017-08-26T09:33:21.043Z,1003.27
2017-08-26T09:34:21.051Z,1003.24
2017-08-26T09:35:21.015Z,1003.25
2017-08-26T09:36:21.038Z,1003.21
2017-08-26T09:37:21.056Z,1003.18
2017-08-26T09:38:21.047Z,1003.17
2017-08-26T09:39:21.002Z,1003.18
2017-08-26T09:40:21.009Z,1003.21
2017-08-26T09:41:20.958Z,1003.18
2017-08-26T09:42:20.945Z,1003.14
2017-08-26T09:43:21.008Z,1003.15
2017-08-26T09:44:21.053Z,1003.19
2017-08-26T09:45:20.960Z,1003.18
2017-08-26T09:46:20.913Z,1003.23
2017-08-26T09:47:20.921Z,1003.22
2017-08-26T09:48:20.980Z,1003.25
2017-08-26T09:49:20.878Z,1003.23
2017-08-26T09:50:20.894Z,1003.21
2017-08-26T09:51:20.907Z,1003.20
2017-08-26T09:52:20.909Z,1003.24
2017-08-26T09:53:20.874Z,1003.21
2017-08-26T09:54:20.894Z,1003.19
2017-08-26T09:55:20.863Z,1003.17
2017-08-26T09:56:20.844Z,1003.17
2017-08-26T09:57:20.864Z,1003.17
2017-08-26T09:58:20.839Z,1003.14
2017-08-26T09:59:20.817Z,1003.12
2017-08-26T10:00:20.824Z,1003.15
2017-08-26T10:01:20.871Z,1003.12
2017-08-26T10:02:20.808Z,1003.17
2017-08-26T10:03:20.785Z,1003.11
2017-08-26T10:04:20.761Z,1003.10
2017-08-26T10:05:20.783Z,1003.06
2017-08-26T10:06:20.762Z,1003.04
2017-08-26T10:07:20.752Z,1003.05
2017-08-26T10:08:20.736Z,1003.05
2017-08-26T10:09:20.789Z,1003.03
2017-08-26T10:10:20.717Z,1003.03
2017-08-26T10:11:20.700Z,1003.00
2017-08-26T10:12:20.710Z,1002.99
2017-08-26T10:13:20.788Z,1003.02
2017-08-26T10:14:20.746Z,1003.04
2017-08-26T10:15:20.717Z,1003.03
2017-08-26T10:16:20.703Z,1002.99
2017-08-26T10:17:20.653Z,1003.01
2017-08-26T10:18:20.687Z,1003.03
2017-08-26T10:19:20.646Z,1002.95
2017-08-26T10:20:20.675Z,1002.98
2017-08-26T10:21:20.634Z,1002.97
2017-08-26T10:22:20.655Z,1002.95
2017-08-26T10:23:20.618Z,1002.92
2017-08-26T10:24:20.628Z,1002.91
2017-08-26T10:25:20.651Z,1002.94
2017-08-26T10:26:20.625Z,1002.91
2017-08-26T10:27:20.643Z,1002.92
2017-08-26T10:28:20.576Z,1002.89
2017-08-26T10:29:20.607Z,1002.89
2017-08-26T10:30:20.643Z,1002.82
2017-08-26T10:31:20.564Z,1002.86
2017-08-26T10:32:20.556Z,1002.82
2017-08-26T10:33:20.567Z,1002.85
2017-08-26T10:34:20.543Z,1002.78
2017-08-26T10:35:20.546Z,1002.78
2017-08-26T10:36:20.542Z,1002.78
2017-08-26T10:37:20.507Z,1002.82
2017-08-26T10:38:20.494Z,1002.79
2017-08-26T10:39:20.513Z,1002.72
2017-08-26T10:40:20.477Z,1002.73
2017-08-26T10:41:20.515Z,1002.78
2017-08-26T10:42:20.474Z,1002.81
2017-08-26T10:43:20.473Z,1002.80
2017-08-26T10:44:20.547Z,1002.78
2017-08-26T10:45:20.458Z,1002.72
2017-08-26T10:46:20.496Z,1002.74
2017-08-26T10:47:20.437Z,1002.73
2017-08-26T10:48:20.525Z,1002.78
2017-08-26T10:49:20.445Z,1002.76
2017-08-26T10:50:20.429Z,1002.73
2017-08-26T10:51:20.413Z,1002.77
2017-08-26T10:52:20.429Z,1002.70
2017-08-26T10:53:20.378Z,1002.69
2017-08-26T10:54:20.402Z,1002.69
2017-08-26T10:55:20.422Z,1002.67
2017-08-26T10:56:20.428Z,1002.61
2017-08-26T10:57:20.464Z,1002.65
2017-08-26T10:58:20.420Z,1002.66
2017-08-26T10:59:20.365Z,1002.69
2017-08-26T11:00:20.359Z,1002.64
2017-08-26T11:01:20.355Z,1002.66
2017-08-26T11:02:20.342Z,1002.64
2017-08-26T11:03:20.362Z,1002.56
2017-08-26T11:04:20.356Z,1002.61
2017-08-26T11:05:20.372Z,1002.58
2017-08-26T11:06:20.326Z,1002.60
2017-08-26T11:07:20.317Z,1002.59
2017-08-26T11:08:20.330Z,1002.59
2017-08-26T11:09:20.336Z,1002.59
2017-08-26T11:10:20.276Z,1002.61
2017-08-26T11:11:20.359Z,1002.57
2017-08-26T11:12:20.270Z,1002.55
2017-08-26T11:13:20.273Z,1002.48
2017-08-26T11:14:20.270Z,1002.47
2017-08-26T11:15:20.266Z,1002.55
2017-08-26T11:16:20.263Z,1002.53
2017-08-26T11:17:20.303Z,1002.49
2017-08-26T11:18:20.234Z,1002.50
2017-08-26T11:19:20.240Z,1002.49
2017-08-26T11:20:20.243Z,1002.53
2017-08-26T11:21:20.224Z,1002.55
2017-08-26T11:22:20.251Z,1002.43
2017-08-26T11:23:20.212Z,1002.50
2017-08-26T11:24:20.231Z,1002.48
2017-08-26T11:25:20.266Z,1002.45
2017-08-26T11:26:20.189Z,1002.52
2017-08-26T11:27:20.205Z,1002.51
2017-08-26T11:28:20.186Z,1002.51
2017-08-26T11:29:20.193Z,1002.45
2017-08-26T11:30:20.178Z,1002.41
2017-08-26T11:31:20.179Z,1002.48
2017-08-26T11:32:20.149Z,1002.45
2017-08-26T11:33:20.145Z,1002.36
2017-08-26T11:34:20.159Z,1002.37
2017-08-26T11:35:20.182Z,1002.37
2017-08-26T11:36:20.743Z,1002.36
2017-08-26T11:37:20.161Z,1002.35
2017-08-26T11:38:20.133Z,1002.38
2017-08-26T11:39:20.140Z,1002.40
2017-08-26T11:40:20.117Z,1002.41
2017-08-26T11:41:20.182Z,1002.37
2017-08-26T11:42:20.104Z,1002.35
2017-08-26T11:43:20.104Z,1002.41
2017-08-26T11:44:20.094Z,1002.40
2017-08-26T11:45:20.097Z,1002.41
2017-08-26T11:46:20.113Z,1002.37
2017-08-26T11:47:20.104Z,1002.41
2017-08-26T11:48:20.102Z,1002.44
2017-08-26T11:49:20.097Z,1002.42
2017-08-26T11:50:20.075Z,1002.39
2017-08-26T11:51:20.090Z,1002.33
2017-08-26T11:52:20.106Z,1002.39
2017-08-26T11:53:20.102Z,1002.35
2017-08-26T11:54:20.081Z,1002.39
2017-08-26T11:55:20.056Z,1002.39
2017-08-26T11:56:20.068Z,1002.36
2017-08-26T11:57:20.068Z,1002.38
2017-08-26T11:58:20.055Z,1002.34
2017-08-26T11:59:20.046Z,1002.36
2017-08-26T12:00:20.023Z,1002.41
2017-08-26T12:01:20.015Z,1002.36
2017-08-26T12:02:20.011Z,1002.35
2017-08-26T12:03:20.008Z,1002.34
2017-08-26T12:04:20.026Z,1002.35
2017-08-26T12:05:20.026Z,1002.39